createdAt,value
2023-04-24T03:47:57.535Z,10.50
2023-04-24T03:50:24.428Z,10.50
2023-04-24T03:52:51.084Z,10.40
2023-04-24T03:55:17.712Z,10.20
2023-04-24T03:57:44.315Z,10.20
2023-04-24T04:00:12.004Z,10.10
2023-04-24T04:02:38.687Z,10.20
2023-04-24T04:05:06.070Z,10.10
2023-04-24T04:07:32.835Z,10.10
2023-04-24T04:09:59.524Z,9.80
2023-04-24T04:12:26.283Z,9.70
2023-04-24T04:14:52.939Z,9.80
2023-04-24T04:17:19.630Z,9.70
2023-04-24T04:19:46.230Z,9.90
2023-04-24T04:22:12.833Z,10.00
2023-04-24T04:24:41.437Z,9.90
2023-04-24T04:27:08.995Z,9.80
2023-04-24T04:29:36.704Z,9.90
2023-04-24T04:32:03.824Z,9.80
2023-04-24T04:34:30.733Z,9.70
2023-04-24T04:37:00.453Z,9.90
2023-04-24T04:39:29.147Z,9.80
2023-04-24T04:41:55.844Z,9.70
2023-04-24T04:44:22.496Z,9.70
2023-04-24T04:46:49.313Z,9.60
2023-04-24T04:49:17.717Z,9.70
2023-04-24T04:51:44.431Z,9.50
2023-04-24T04:54:11.111Z,9.60
2023-04-24T04:56:37.736Z,9.70
2023-04-24T04:59:04.396Z,9.70
2023-04-24T05:01:31.353Z,9.70
2023-04-24T05:03:58.347Z,9.90
2023-04-24T05:06:25.317Z,9.90
2023-04-24T05:08:52.207Z,9.90
2023-04-24T05:11:18.855Z,10.10
2023-04-24T05:13:45.548Z,10.10
2023-04-24T05:16:12.202Z,10.00
2023-04-24T05:18:39.036Z,10.00
2023-04-24T05:21:05.770Z,10.00
2023-04-24T05:23:32.580Z,10.10
2023-04-24T05:25:59.220Z,9.80
2023-04-24T05:28:29.241Z,10.00
2023-04-24T05:30:56.888Z,9.90
2023-04-24T05:33:24.030Z,9.90
2023-04-24T05:35:50.696Z,9.90
2023-04-24T05:38:20.677Z,9.90
2023-04-24T05:40:47.358Z,10.00
2023-04-24T05:43:14.598Z,10.10
2023-04-24T05:45:41.280Z,10.00
2023-04-24T05:48:07.913Z,10.10
2023-04-24T05:50:36.794Z,10.10
2023-04-24T05:53:04.530Z,10.00
2023-04-24T05:55:32.315Z,9.90
2023-04-24T05:57:59.100Z,10.10
2023-04-24T06:00:26.318Z,9.90
2023-04-24T06:02:53.968Z,10.00
2023-04-24T06:05:21.218Z,10.10
2023-04-24T06:07:49.007Z,10.20
2023-04-24T06:10:15.869Z,10.30
2023-04-24T06:12:42.703Z,10.10
2023-04-24T06:15:09.756Z,10.10
2023-04-24T06:17:36.483Z,10.30
2023-04-24T06:20:06.119Z,10.30
2023-04-24T06:22:32.907Z,10.30
2023-04-24T06:25:01.604Z,10.40
2023-04-24T06:27:28.297Z,10.40
2023-04-24T06:29:56.149Z,10.30
2023-04-24T06:32:24.455Z,10.40
2023-04-24T06:34:53.240Z,10.50
2023-04-24T06:37:21.444Z,10.80
2023-04-24T06:39:48.368Z,10.90
2023-04-24T06:42:15.177Z,10.70
2023-04-24T06:44:42.118Z,10.70
2023-04-24T06:47:14.485Z,10.70
2023-04-24T06:49:41.281Z,10.80
2023-04-24T06:52:08.416Z,11.00
2023-04-24T06:54:35.084Z,11.20
2023-04-24T06:57:03.357Z,11.20
2023-04-24T06:59:30.658Z,11.40
2023-04-24T07:01:58.064Z,11.40
2023-04-24T07:04:26.327Z,11.60
2023-04-24T07:06:56.756Z,11.60
2023-04-24T07:09:24.704Z,11.80
2023-04-24T07:11:52.310Z,11.70
2023-04-24T07:14:19.064Z,11.90
2023-04-24T07:16:46.228Z,12.00
2023-04-24T07:19:14.099Z,11.80
2023-04-24T07:21:41.032Z,11.90
2023-04-24T07:24:11.608Z,11.90
2023-04-24T07:26:38.474Z,12.00
2023-04-24T07:29:05.147Z,12.30
2023-04-24T07:31:31.807Z,12.40
2023-04-24T07:33:59.194Z,12.40
2023-04-24T07:36:26.935Z,12.50
2023-04-24T07:38:53.983Z,12.30
2023-04-24T07:41:23.611Z,12.00
2023-04-24T07:43:51.847Z,11.80
2023-04-24T07:46:18.563Z,11.60
2023-04-24T07:48:45.377Z,11.40
2023-04-24T07:51:14.239Z,11.30
2023-04-24T07:53:41.119Z,11.30
2023-04-24T07:56:07.985Z,10.90
2023-04-24T07:58:35.195Z,10.80
2023-04-24T08:01:02.046Z,10.90
2023-04-24T08:03:28.927Z,11.00
2023-04-24T08:05:56.243Z,11.20
2023-04-24T08:08:23.713Z,11.50
2023-04-24T08:10:51.047Z,11.70
2023-04-24T08:13:17.838Z,12.00
2023-04-24T08:15:44.520Z,12.00
2023-04-24T08:18:12.954Z,12.30
2023-04-24T08:20:40.045Z,12.80
2023-04-24T08:23:06.723Z,12.70
2023-04-24T08:25:33.571Z,12.70
2023-04-24T08:28:00.399Z,12.90
2023-04-24T08:30:27.056Z,12.70
2023-04-24T08:32:53.746Z,13.00
2023-04-24T08:35:20.504Z,12.60
2023-04-24T08:37:47.200Z,12.60
2023-04-24T08:40:15.815Z,12.40
2023-04-24T08:42:45.986Z,12.60
2023-04-24T08:45:13.894Z,12.80
2023-04-24T08:47:41.543Z,13.10
2023-04-24T08:50:09.600Z,13.20
2023-04-24T08:52:36.928Z,13.30
2023-04-24T08:55:03.784Z,13.60
2023-04-24T08:57:32.011Z,14.60
2023-04-24T08:59:59.324Z,15.70
2023-04-24T09:02:27.053Z,15.90
2023-04-24T09:04:54.684Z,16.50
2023-04-24T09:07:25.700Z,16.90
2023-04-24T09:09:53.374Z,16.30
2023-04-24T09:12:20.385Z,15.70
2023-04-24T09:14:47.191Z,15.80
2023-04-24T09:17:14.075Z,16.30
2023-04-24T09:19:41.787Z,15.90
2023-04-24T09:22:10.039Z,14.90
2023-04-24T09:24:36.901Z,14.40
2023-04-24T09:27:04.108Z,14.00
2023-04-24T09:29:31.060Z,13.80
2023-04-24T09:31:57.740Z,13.60
2023-04-24T09:34:28.532Z,14.50
2023-04-24T09:36:56.000Z,14.80
2023-04-24T09:39:22.698Z,16.30
2023-04-24T09:41:54.857Z,17.60
2023-04-24T09:44:23.586Z,18.50
2023-04-24T09:46:52.694Z,19.00
2023-04-24T09:49:31.290Z,19.20
2023-04-24T09:52:06.092Z,17.80
2023-04-24T09:54:32.956Z,16.60
2023-04-24T09:57:00.985Z,15.60
2023-04-24T09:59:27.812Z,14.90
2023-04-24T10:01:54.613Z,15.80
2023-04-24T10:04:25.192Z,16.40
2023-04-24T10:06:54.440Z,17.50
2023-04-24T10:09:23.405Z,18.90
2023-04-24T10:11:52.044Z,18.30
2023-04-24T10:14:21.596Z,18.00
2023-04-24T10:16:49.251Z,18.30
2023-04-24T10:19:17.559Z,18.10
2023-04-24T10:21:47.887Z,18.60
2023-04-24T10:24:16.669Z,18.70
2023-04-24T10:26:44.455Z,17.70
2023-04-24T10:29:16.497Z,17.00
2023-04-24T10:31:46.427Z,16.80
2023-04-24T10:34:15.287Z,17.70
2023-04-24T10:36:46.929Z,17.70
2023-04-24T10:39:15.940Z,18.70
2023-04-24T10:41:42.846Z,19.00
2023-04-24T10:44:15.097Z,19.20
2023-04-24T10:46:46.943Z,19.10
2023-04-24T10:49:13.746Z,19.30
2023-04-24T10:51:48.962Z,19.50
2023-04-24T10:54:30.130Z,18.90
2023-04-24T10:57:21.738Z,19.00
2023-04-24T10:59:51.388Z,18.10
2023-04-24T11:02:19.282Z,18.20
2023-04-24T11:04:46.625Z,18.10
2023-04-24T11:07:13.593Z,18.00
2023-04-24T11:09:43.885Z,17.70
2023-04-24T11:12:12.511Z,17.30
2023-04-24T11:14:58.162Z,17.60
2023-04-24T11:17:29.930Z,18.60
2023-04-24T11:20:12.219Z,19.40
2023-04-24T11:22:45.931Z,20.10
2023-04-24T11:25:15.337Z,20.30
2023-04-24T11:27:49.665Z,19.80
2023-04-24T11:30:19.804Z,19.00
2023-04-24T11:32:50.877Z,18.10
2023-04-24T11:35:19.993Z,17.80
2023-04-24T11:40:29.332Z,17.50
2023-04-24T11:42:56.543Z,17.40
2023-04-24T11:45:29.197Z,17.50
2023-04-24T11:47:56.053Z,17.70
2023-04-24T11:50:26.761Z,18.70
2023-04-24T11:52:53.573Z,19.80
2023-04-24T11:55:20.260Z,20.70
2023-04-24T11:57:48.904Z,21.20
2023-04-24T12:00:23.488Z,21.10
2023-04-24T12:02:51.442Z,20.40
2023-04-24T12:05:27.154Z,19.20
2023-04-24T12:07:55.379Z,18.60
2023-04-24T12:10:26.402Z,18.20
2023-04-24T12:12:56.882Z,18.20
2023-04-24T12:15:23.871Z,18.20
2023-04-24T12:17:53.186Z,18.20
2023-04-24T12:20:28.601Z,17.20
2023-04-24T12:22:57.722Z,16.70
2023-04-24T12:25:27.071Z,16.40
2023-04-24T12:27:56.226Z,16.20
2023-04-24T12:30:28.271Z,15.90
2023-04-24T12:32:56.084Z,15.70
2023-04-24T12:35:24.879Z,15.30
2023-04-24T12:37:51.606Z,15.80
2023-04-24T12:40:20.929Z,16.00
2023-04-24T12:42:51.978Z,16.20
2023-04-24T12:45:20.234Z,16.10
2023-04-24T12:47:47.485Z,16.10
2023-04-24T12:50:15.997Z,16.00
2023-04-24T12:52:43.991Z,16.30
2023-04-24T12:55:13.254Z,16.50
2023-04-24T12:57:41.116Z,16.50
2023-04-24T13:00:09.296Z,15.80
2023-04-24T13:02:36.438Z,15.30
2023-04-24T13:05:03.582Z,15.00
2023-04-24T13:07:30.262Z,14.90
2023-04-24T13:09:57.925Z,15.10
2023-04-24T13:12:27.617Z,15.20
2023-04-24T13:14:54.946Z,15.60
2023-04-24T13:17:23.369Z,16.00
2023-04-24T13:19:52.406Z,15.90
2023-04-24T13:22:22.506Z,16.20
2023-04-24T13:24:51.805Z,16.10
2023-04-24T13:27:19.051Z,15.80
2023-04-24T13:29:46.008Z,15.70
2023-04-24T13:32:12.762Z,15.70
2023-04-24T13:34:39.656Z,15.80
2023-04-24T13:37:06.694Z,15.80
2023-04-24T13:39:33.382Z,16.10
2023-04-24T13:42:01.955Z,16.50
2023-04-24T13:44:29.900Z,16.80
2023-04-24T13:46:57.832Z,15.90
2023-04-24T13:49:28.421Z,15.80
2023-04-24T13:51:56.732Z,15.70
2023-04-24T13:54:26.469Z,15.40
2023-04-24T13:56:53.607Z,15.20
2023-04-24T13:59:22.289Z,14.90
2023-04-24T14:01:49.370Z,14.60
2023-04-24T14:04:16.659Z,14.20
2023-04-24T14:06:44.427Z,14.30
2023-04-24T14:09:11.143Z,14.20
2023-04-24T14:11:37.871Z,14.20
2023-04-24T14:14:04.909Z,14.20
2023-04-24T14:16:31.987Z,14.30
2023-04-24T14:18:58.763Z,14.50
2023-04-24T14:21:25.582Z,14.60
2023-04-24T14:23:52.210Z,14.90
2023-04-24T14:26:18.903Z,15.30
2023-04-24T14:28:45.558Z,15.50
2023-04-24T14:31:12.868Z,15.70
2023-04-24T14:33:39.507Z,15.70
2023-04-24T14:36:06.724Z,15.30
2023-04-24T14:38:33.653Z,15.10
2023-04-24T14:41:07.044Z,15.20
2023-04-24T14:43:36.096Z,15.30
2023-04-24T14:46:03.550Z,15.60
2023-04-24T14:48:30.327Z,15.90
2023-04-24T14:50:56.937Z,15.90
2023-04-24T14:53:23.932Z,16.10
2023-04-24T14:55:50.764Z,16.00
2023-04-24T14:58:17.655Z,15.60
2023-04-24T15:00:44.354Z,15.10
2023-04-24T15:03:11.495Z,15.30
2023-04-24T15:05:38.403Z,15.40
2023-04-24T15:08:05.410Z,15.70
2023-04-24T15:10:32.106Z,16.20
2023-04-24T15:12:58.761Z,16.20
2023-04-24T15:15:25.578Z,16.40
2023-04-24T15:17:52.196Z,16.20
2023-04-24T15:20:19.081Z,16.00
2023-04-24T15:22:45.833Z,15.80
2023-04-24T15:25:12.566Z,15.60
2023-04-24T15:27:46.636Z,15.60
2023-04-24T15:30:14.659Z,15.70
2023-04-24T15:32:41.816Z,15.90
2023-04-24T15:35:10.196Z,15.80
2023-04-24T15:37:38.239Z,16.10
2023-04-24T15:40:07.834Z,16.10
2023-04-24T15:42:34.793Z,16.10
2023-04-24T15:45:01.438Z,16.00
2023-04-24T15:47:28.132Z,15.90
2023-04-24T15:49:54.825Z,15.70
2023-04-24T15:52:21.933Z,15.60
2023-04-24T15:54:48.607Z,15.60
2023-04-24T15:57:15.542Z,15.30
2023-04-24T15:59:42.616Z,15.30
2023-04-24T16:02:19.285Z,15.20
2023-04-24T16:04:50.345Z,15.20
2023-04-24T16:07:20.283Z,15.30
2023-04-24T16:09:47.224Z,15.60
2023-04-24T16:12:14.648Z,15.90
2023-04-24T16:14:41.708Z,16.30
2023-04-24T16:17:08.491Z,16.40
2023-04-24T16:19:35.257Z,16.10
2023-04-24T16:22:03.211Z,15.70
2023-04-24T16:24:30.069Z,15.70
2023-04-24T16:26:56.767Z,16.10
2023-04-24T16:29:23.530Z,16.20
2023-04-24T16:31:50.620Z,16.60
2023-04-24T16:34:17.456Z,16.80
2023-04-24T16:36:44.244Z,16.80
2023-04-24T16:39:10.820Z,16.70
2023-04-24T16:41:37.472Z,16.60
2023-04-24T16:44:04.210Z,16.40
2023-04-24T16:46:30.895Z,16.60
2023-04-24T16:48:58.354Z,16.20
2023-04-24T16:51:25.431Z,15.70
2023-04-24T16:53:52.102Z,15.50
2023-04-24T16:56:18.734Z,15.50
2023-04-24T16:58:45.754Z,15.20
2023-04-24T17:01:12.617Z,15.00
2023-04-24T17:03:39.514Z,14.80
2023-04-24T17:06:06.799Z,15.00
2023-04-24T17:08:33.412Z,15.30
2023-04-24T17:11:00.065Z,15.30
2023-04-24T17:13:26.709Z,15.30
2023-04-24T17:15:53.434Z,15.20
2023-04-24T17:18:20.120Z,15.10
2023-04-24T17:20:46.746Z,14.70
2023-04-24T17:23:13.643Z,14.50
2023-04-24T17:25:40.483Z,14.50
2023-04-24T17:28:22.979Z,14.30
2023-04-24T17:30:49.673Z,14.30
2023-04-24T17:33:16.328Z,14.30
2023-04-24T17:35:42.999Z,14.10
2023-04-24T17:38:09.623Z,14.10
2023-04-24T17:40:38.018Z,14.10
2023-04-24T17:43:04.805Z,14.30
2023-04-24T17:45:32.383Z,14.10
2023-04-24T17:47:59.177Z,14.20
2023-04-24T17:50:25.995Z,14.30
2023-04-24T17:52:52.697Z,14.10
2023-04-24T17:55:19.425Z,13.90
2023-04-24T17:57:46.054Z,13.70
2023-04-24T18:00:13.301Z,13.70
2023-04-24T18:02:40.171Z,13.70
2023-04-24T18:05:07.149Z,13.80
2023-04-24T18:07:34.052Z,13.60
2023-04-24T18:10:00.737Z,13.60
2023-04-24T18:12:27.539Z,13.50
2023-04-24T18:15:06.262Z,13.10
2023-04-24T18:17:40.293Z,13.00
2023-04-24T18:20:07.462Z,12.80
2023-04-24T18:22:34.290Z,12.70
2023-04-24T18:25:01.162Z,12.50
2023-04-24T18:27:31.843Z,12.40
2023-04-24T18:29:59.236Z,12.30
2023-04-24T18:32:26.967Z,12.20
2023-04-24T18:34:53.885Z,12.10
2023-04-24T18:37:20.520Z,12.00
2023-04-24T18:39:47.341Z,12.00
2023-04-24T18:42:14.239Z,11.90
2023-04-24T18:44:42.673Z,11.80
2023-04-24T18:47:09.852Z,11.80
2023-04-24T18:49:36.593Z,11.70
2023-04-24T18:52:03.728Z,11.80
2023-04-24T18:54:31.540Z,11.70
2023-04-24T18:56:58.199Z,11.60
2023-04-24T18:59:24.861Z,11.70
2023-04-24T19:01:51.882Z,11.60
2023-04-24T19:04:20.652Z,11.70
2023-04-24T19:06:47.589Z,11.80
2023-04-24T19:09:14.263Z,11.80
2023-04-24T19:11:41.706Z,11.70
2023-04-24T19:14:08.451Z,11.80
2023-04-24T19:16:35.217Z,11.80
2023-04-24T19:19:03.671Z,12.00
2023-04-24T19:21:33.244Z,12.00
2023-04-24T19:24:00.234Z,12.10
2023-04-24T19:26:28.208Z,12.30
2023-04-24T19:28:57.632Z,12.40
2023-04-24T19:31:24.920Z,12.40
2023-04-24T19:33:51.590Z,12.30
2023-04-24T19:36:18.266Z,12.30
2023-04-24T19:38:45.512Z,12.40
2023-04-24T19:41:12.719Z,12.20
2023-04-24T19:43:39.996Z,12.20
2023-04-24T19:46:06.826Z,12.10
2023-04-24T19:48:33.595Z,11.80
2023-04-24T19:51:01.355Z,11.60
2023-04-24T19:53:28.672Z,11.50
2023-04-24T19:55:55.768Z,11.40
2023-04-24T19:58:22.403Z,11.50
2023-04-24T20:00:49.136Z,11.30
2023-04-24T20:03:25.395Z,11.20
2023-04-24T20:05:58.391Z,11.10
2023-04-24T20:08:24.997Z,10.90
2023-04-24T20:10:53.675Z,10.90
2023-04-24T20:13:20.464Z,10.80
2023-04-24T20:15:47.087Z,10.90
2023-04-24T20:18:13.877Z,10.80
2023-04-24T20:20:41.591Z,10.90
2023-04-24T20:23:08.432Z,10.80
2023-04-24T20:25:36.120Z,10.70
2023-04-24T20:28:02.883Z,10.60
2023-04-24T20:30:31.330Z,10.80
2023-04-24T20:32:58.511Z,10.90
2023-04-24T20:35:25.207Z,10.80
2023-04-24T20:37:53.531Z,10.80
2023-04-24T20:40:20.207Z,10.70
2023-04-24T20:42:46.901Z,10.60
2023-04-24T20:45:13.504Z,10.50
2023-04-24T20:47:40.129Z,10.50
2023-04-24T20:50:07.527Z,10.60
2023-04-24T20:52:34.553Z,10.70
2023-04-24T20:55:01.251Z,10.60
2023-04-24T20:57:27.973Z,10.60
2023-04-24T20:59:55.016Z,10.50
2023-04-24T21:02:21.780Z,10.40
2023-04-24T21:04:48.459Z,10.30
2023-04-24T21:07:15.646Z,10.20
2023-04-24T21:09:42.317Z,10.20
2023-04-24T21:12:08.982Z,10.00
2023-04-24T21:14:35.675Z,9.90
2023-04-24T21:17:03.174Z,9.90
2023-04-24T21:19:29.894Z,9.90
2023-04-24T21:21:56.550Z,9.80
2023-04-24T21:24:23.179Z,9.70
2023-04-24T21:26:50.099Z,9.70
2023-04-24T21:29:17.084Z,9.60
2023-04-24T21:31:44.247Z,9.60
2023-04-24T21:34:10.985Z,9.70
2023-04-24T21:36:37.747Z,9.70
2023-04-24T21:39:04.379Z,9.80
2023-04-24T21:41:31.454Z,9.80
2023-04-24T21:43:59.134Z,9.90
2023-04-24T21:46:26.588Z,9.70
2023-04-24T21:48:53.306Z,9.70
2023-04-24T21:51:20.368Z,9.60
2023-04-24T21:53:47.267Z,9.60
2023-04-24T21:56:14.259Z,9.40
2023-04-24T21:58:41.325Z,9.30
2023-04-24T22:01:08.686Z,9.40
2023-04-24T22:03:35.634Z,9.30
2023-04-24T22:06:02.374Z,9.10
2023-04-24T22:08:29.067Z,9.10
2023-04-24T22:10:56.427Z,9.10
2023-04-24T22:13:23.172Z,9.10
2023-04-24T22:15:53.342Z,9.00
2023-04-24T22:18:20.050Z,8.90
2023-04-24T22:20:47.172Z,8.90
2023-04-24T22:23:13.930Z,8.90
2023-04-24T22:25:40.626Z,8.90
2023-04-24T22:28:07.304Z,8.90
2023-04-24T22:30:34.016Z,9.00
2023-04-24T22:33:01.387Z,9.10
2023-04-24T22:35:28.088Z,9.10
2023-04-24T22:37:55.505Z,9.20
2023-04-24T22:40:23.108Z,9.10
2023-04-24T22:42:49.794Z,9.10
2023-04-24T22:45:17.462Z,9.10
2023-04-24T22:47:44.243Z,9.00
2023-04-24T22:50:11.297Z,9.10
2023-04-24T22:52:37.927Z,9.30
2023-04-24T22:55:06.653Z,9.50
2023-04-24T22:57:33.425Z,9.60
2023-04-24T23:00:00.169Z,9.90
